Aeroporto :







RITROVATECI SU...

 
LOGIN :

Iscrizione | Disclaimer

   EN    FR    IT 

 









Sommario :    VFR   VFR Marginale   IFR   IFR Intensivo   IFR Molto Intensivo
Visibilità : 
Base nubi : 
>= 8 km
>= 3000ft
5 / 8 km
1000 / 3000 ft
1500m / 5 km
500 / 1000 ft
800 / 1500m
200 / 500 ft
< 800m
< 200 ft
Simboli :   Temporali  Nebbia  Neve Forte  Precipitazioni Forti  Vento > 20 kt






- Altitudine del aeroporto : 48 ft
- Codice IATA : REK


BIRK - Reykjavik

ULTIMO METAR :
  • 240400Z 26020KT 9999 FEW029 SCT035 OVC048 01/M05 Q1000

METARs OBSOLETI :
  • 240300Z 26021G31KT 9999 -SHSN BKN028 OVC042 01/M05 Q1000
  • 240200Z 26023KT 9999 -SHGS BKN028 OVC052 01/M07 Q0999

TAF TAF BIRK
Valido dal 24 a 03 ore il 25 a 03 ore UTC


240116Z 2403/2503 26025G35KT 9999 -SHSN SCT020 BKN030 TX02/2408Z TNM02/2421Z
BECMG 2404/2406 26015KT BKN035
BECMG 2408/2410 20007KT
BECMG 2415/2417 10013KT
BECMG 2420/2423 08023KT 8000 -SN BKN018



MetMap, La meteo Aeronautica in un colpo d'occhio ! - Copyright ORBIFLY Dicembre 2007 - Disclaimer

ORBIFLY MET'MAP TEAM :

Programmazione e sviluppo : Alexandra Zaïnal
Concezione : Baudouin d'Aumeries
Aiuto per la programmazione : Marc-Olivier Méhu
Supporto tecnico e logistico : Manuel Goepfert
Aiuto per la traduzione : Arnaldo La Scala

Contatto : metmap@orbifly.com




FONTI E CREDITI :

   NOAA